sensor_id;sensor_type;location;lat;lon;timestamp;P1;durP1;ratioP1;P2;durP2;ratioP2
76729;SDS011;65653;53.106;18.046;2024-03-29T00:01:36;1.80;;;1.10;;
76729;SDS011;65653;53.106;18.046;2024-03-29T00:04:02;1.70;;;1.10;;
76729;SDS011;65653;53.106;18.046;2024-03-29T00:06:29;1.30;;;0.90;;
76729;SDS011;65653;53.106;18.046;2024-03-29T00:08:55;1.90;;;1.00;;
76729;SDS011;65653;53.106;18.046;2024-03-29T00:11:22;2.30;;;1.20;;
76729;SDS011;65653;53.106;18.046;2024-03-29T00:13:48;1.20;;;0.80;;
76729;SDS011;65653;53.106;18.046;2024-03-29T00:16:15;3.10;;;1.30;;
76729;SDS011;65653;53.106;18.046;2024-03-29T00:18:41;2.50;;;1.20;;
76729;SDS011;65653;53.106;18.046;2024-03-29T00:21:08;1.30;;;0.90;;
76729;SDS011;65653;53.106;18.046;2024-03-29T00:23:34;1.30;;;1.00;;
76729;SDS011;65653;53.106;18.046;2024-03-29T00:26:01;1.80;;;1.00;;
76729;SDS011;65653;53.106;18.046;2024-03-29T00:28:27;2.10;;;1.10;;
76729;SDS011;65653;53.106;18.046;2024-03-29T00:30:53;1.10;;;0.70;;
76729;SDS011;65653;53.106;18.046;2024-03-29T00:33:20;1.70;;;1.00;;
76729;SDS011;65653;53.106;18.046;2024-03-29T00:35:46;1.20;;;0.80;;
76729;SDS011;65653;53.106;18.046;2024-03-29T00:38:14;1.90;;;1.10;;
76729;SDS011;65653;53.106;18.046;2024-03-29T00:40:41;2.80;;;1.30;;
76729;SDS011;65653;53.106;18.046;2024-03-29T00:43:07;1.90;;;0.90;;
76729;SDS011;65653;53.106;18.046;2024-03-29T00:45:33;2.30;;;1.10;;
76729;SDS011;65653;53.106;18.046;2024-03-29T00:48:00;1.40;;;0.90;;
76729;SDS011;65653;53.106;18.046;2024-03-29T00:50:26;1.20;;;0.90;;
76729;SDS011;65653;53.106;18.046;2024-03-29T00:52:53;2.30;;;1.10;;
76729;SDS011;65653;53.106;18.046;2024-03-29T00:55:19;2.70;;;1.30;;
76729;SDS011;65653;53.106;18.046;2024-03-29T00:57:46;1.60;;;0.90;;
76729;SDS011;65653;53.106;18.046;2024-03-29T01:00:13;1.50;;;1.20;;
76729;SDS011;65653;53.106;18.046;2024-03-29T01:02:40;1.40;;;1.00;;
76729;SDS011;65653;53.106;18.046;2024-03-29T01:05:06;2.90;;;1.40;;
76729;SDS011;65653;53.106;18.046;2024-03-29T01:07:33;2.20;;;1.00;;
76729;SDS011;65653;53.106;18.046;2024-03-29T01:10:00;2.70;;;1.20;;
76729;SDS011;65653;53.106;18.046;2024-03-29T01:12:27;2.70;;;1.20;;
76729;SDS011;65653;53.106;18.046;2024-03-29T01:14:53;3.10;;;1.10;;
76729;SDS011;65653;53.106;18.046;2024-03-29T01:17:20;4.40;;;1.30;;
76729;SDS011;65653;53.106;18.046;2024-03-29T01:19:46;1.90;;;1.20;;
76729;SDS011;65653;53.106;18.046;2024-03-29T01:22:12;1.80;;;1.20;;
76729;SDS011;65653;53.106;18.046;2024-03-29T01:24:39;1.90;;;0.80;;
76729;SDS011;65653;53.106;18.046;2024-03-29T01:27:05;2.10;;;1.10;;
76729;SDS011;65653;53.106;18.046;2024-03-29T01:29:32;2.10;;;1.20;;
76729;SDS011;65653;53.106;18.046;2024-03-29T01:31:59;1.90;;;1.20;;
76729;SDS011;65653;53.106;18.046;2024-03-29T01:34:25;2.40;;;1.40;;
76729;SDS011;65653;53.106;18.046;2024-03-29T01:36:52;1.20;;;1.00;;
76729;SDS011;65653;53.106;18.046;2024-03-29T01:39:18;3.20;;;1.30;;
76729;SDS011;65653;53.106;18.046;2024-03-29T01:41:47;2.50;;;1.00;;
76729;SDS011;65653;53.106;18.046;2024-03-29T01:44:13;1.70;;;1.10;;
76729;SDS011;65653;53.106;18.046;2024-03-29T01:46:41;3.10;;;1.10;;
76729;SDS011;65653;53.106;18.046;2024-03-29T01:49:07;3.00;;;1.20;;
76729;SDS011;65653;53.106;18.046;2024-03-29T01:51:38;2.80;;;1.10;;
76729;SDS011;65653;53.106;18.046;2024-03-29T01:56:34;2.60;;;1.20;;
76729;SDS011;65653;53.106;18.046;2024-03-29T01:59:02;4.00;;;1.30;;
76729;SDS011;65653;53.106;18.046;2024-03-29T02:01:30;1.90;;;1.10;;
76729;SDS011;65653;53.106;18.046;2024-03-29T02:03:56;3.70;;;1.40;;
76729;SDS011;65653;53.106;18.046;2024-03-29T02:06:23;2.60;;;1.50;;
76729;SDS011;65653;53.106;18.046;2024-03-29T02:08:51;2.40;;;1.10;;
76729;SDS011;65653;53.106;18.046;2024-03-29T02:11:19;2.20;;;1.30;;
76729;SDS011;65653;53.106;18.046;2024-03-29T02:13:47;2.80;;;1.00;;
76729;SDS011;65653;53.106;18.046;2024-03-29T02:16:16;3.10;;;1.20;;
76729;SDS011;65653;53.106;18.046;2024-03-29T02:18:42;1.80;;;1.20;;
76729;SDS011;65653;53.106;18.046;2024-03-29T02:21:08;2.80;;;1.20;;
76729;SDS011;65653;53.106;18.046;2024-03-29T02:23:36;1.70;;;1.10;;
76729;SDS011;65653;53.106;18.046;2024-03-29T02:26:06;2.50;;;1.10;;
76729;SDS011;65653;53.106;18.046;2024-03-29T02:28:33;1.50;;;1.20;;
76729;SDS011;65653;53.106;18.046;2024-03-29T02:30:59;1.80;;;1.30;;
76729;SDS011;65653;53.106;18.046;2024-03-29T02:33:26;2.80;;;1.30;;
76729;SDS011;65653;53.106;18.046;2024-03-29T02:35:52;2.50;;;1.30;;
76729;SDS011;65653;53.106;18.046;2024-03-29T02:38:18;1.90;;;1.20;;
76729;SDS011;65653;53.106;18.046;2024-03-29T02:40:46;3.30;;;1.40;;
76729;SDS011;65653;53.106;18.046;2024-03-29T02:43:12;1.80;;;1.10;;
76729;SDS011;65653;53.106;18.046;2024-03-29T02:45:39;2.30;;;1.30;;
76729;SDS011;65653;53.106;18.046;2024-03-29T02:48:06;3.60;;;1.50;;
76729;SDS011;65653;53.106;18.046;2024-03-29T02:50:32;1.60;;;1.00;;
76729;SDS011;65653;53.106;18.046;2024-03-29T02:52:59;2.50;;;1.40;;
76729;SDS011;65653;53.106;18.046;2024-03-29T02:55:25;2.50;;;1.20;;
76729;SDS011;65653;53.106;18.046;2024-03-29T02:57:52;2.00;;;1.50;;
76729;SDS011;65653;53.106;18.046;2024-03-29T03:00:18;1.10;;;0.80;;
76729;SDS011;65653;53.106;18.046;2024-03-29T03:02:44;2.50;;;1.30;;
76729;SDS011;65653;53.106;18.046;2024-03-29T03:05:11;1.70;;;1.20;;
76729;SDS011;65653;53.106;18.046;2024-03-29T03:07:37;2.70;;;1.40;;
76729;SDS011;65653;53.106;18.046;2024-03-29T03:10:22;1.90;;;1.20;;
76729;SDS011;65653;53.106;18.046;2024-03-29T03:13:07;1.80;;;1.10;;
76729;SDS011;65653;53.106;18.046;2024-03-29T03:15:34;2.40;;;1.40;;
76729;SDS011;65653;53.106;18.046;2024-03-29T03:18:00;3.10;;;1.00;;
76729;SDS011;65653;53.106;18.046;2024-03-29T03:20:26;2.70;;;1.10;;
76729;SDS011;65653;53.106;18.046;2024-03-29T03:22:56;2.20;;;1.30;;
76729;SDS011;65653;53.106;18.046;2024-03-29T03:25:27;2.60;;;1.30;;
76729;SDS011;65653;53.106;18.046;2024-03-29T03:27:53;2.50;;;1.40;;
76729;SDS011;65653;53.106;18.046;2024-03-29T03:30:20;1.70;;;1.30;;
76729;SDS011;65653;53.106;18.046;2024-03-29T03:32:48;2.30;;;1.30;;
76729;SDS011;65653;53.106;18.046;2024-03-29T03:35:15;3.30;;;1.60;;
76729;SDS011;65653;53.106;18.046;2024-03-29T03:37:42;2.30;;;1.60;;
76729;SDS011;65653;53.106;18.046;2024-03-29T03:40:08;3.60;;;1.50;;
76729;SDS011;65653;53.106;18.046;2024-03-29T03:42:35;2.10;;;1.20;;
76729;SDS011;65653;53.106;18.046;2024-03-29T03:45:01;2.50;;;1.00;;
76729;SDS011;65653;53.106;18.046;2024-03-29T03:47:30;2.00;;;1.40;;
76729;SDS011;65653;53.106;18.046;2024-03-29T03:49:56;2.80;;;1.50;;
76729;SDS011;65653;53.106;18.046;2024-03-29T03:52:22;2.70;;;1.30;;
76729;SDS011;65653;53.106;18.046;2024-03-29T03:54:49;3.40;;;1.80;;
76729;SDS011;65653;53.106;18.046;2024-03-29T03:57:16;3.10;;;1.50;;
76729;SDS011;65653;53.106;18.046;2024-03-29T03:59:42;1.60;;;1.20;;
76729;SDS011;65653;53.106;18.046;2024-03-29T04:02:09;2.60;;;1.50;;
76729;SDS011;65653;53.106;18.046;2024-03-29T04:04:36;2.70;;;1.50;;
76729;SDS011;65653;53.106;18.046;2024-03-29T04:07:02;3.70;;;1.30;;
76729;SDS011;65653;53.106;18.046;2024-03-29T04:09:28;4.40;;;1.60;;
76729;SDS011;65653;53.106;18.046;2024-03-29T04:11:55;3.30;;;1.40;;
76729;SDS011;65653;53.106;18.046;2024-03-29T04:14:21;3.20;;;1.40;;
76729;SDS011;65653;53.106;18.046;2024-03-29T04:16:47;2.90;;;1.20;;
76729;SDS011;65653;53.106;18.046;2024-03-29T04:19:14;1.70;;;1.20;;
76729;SDS011;65653;53.106;18.046;2024-03-29T04:21:40;2.90;;;1.30;;
76729;SDS011;65653;53.106;18.046;2024-03-29T04:24:07;2.70;;;1.30;;
76729;SDS011;65653;53.106;18.046;2024-03-29T04:26:36;2.50;;;1.20;;
76729;SDS011;65653;53.106;18.046;2024-03-29T04:29:03;1.40;;;0.90;;
76729;SDS011;65653;53.106;18.046;2024-03-29T04:31:29;2.70;;;1.30;;
76729;SDS011;65653;53.106;18.046;2024-03-29T04:33:56;2.00;;;1.10;;
76729;SDS011;65653;53.106;18.046;2024-03-29T04:36:22;1.70;;;1.30;;
76729;SDS011;65653;53.106;18.046;2024-03-29T04:38:49;2.60;;;1.40;;
76729;SDS011;65653;53.106;18.046;2024-03-29T04:41:16;3.20;;;1.60;;
76729;SDS011;65653;53.106;18.046;2024-03-29T04:43:43;2.60;;;1.20;;
76729;SDS011;65653;53.106;18.046;2024-03-29T04:46:10;2.30;;;1.30;;
76729;SDS011;65653;53.106;18.046;2024-03-29T04:48:41;2.40;;;1.50;;
76729;SDS011;65653;53.106;18.046;2024-03-29T04:51:09;2.20;;;1.30;;
76729;SDS011;65653;53.106;18.046;2024-03-29T04:53:36;2.70;;;1.40;;
76729;SDS011;65653;53.106;18.046;2024-03-29T04:56:04;2.60;;;1.00;;
76729;SDS011;65653;53.106;18.046;2024-03-29T04:58:31;2.90;;;1.20;;
76729;SDS011;65653;53.106;18.046;2024-03-29T05:00:58;3.20;;;1.50;;
76729;SDS011;65653;53.106;18.046;2024-03-29T05:03:25;1.80;;;1.30;;
76729;SDS011;65653;53.106;18.046;2024-03-29T05:05:52;2.60;;;1.60;;
76729;SDS011;65653;53.106;18.046;2024-03-29T05:08:19;1.70;;;1.10;;
76729;SDS011;65653;53.106;18.046;2024-03-29T05:10:48;4.20;;;1.50;;
76729;SDS011;65653;53.106;18.046;2024-03-29T05:13:21;3.50;;;1.50;;
76729;SDS011;65653;53.106;18.046;2024-03-29T05:15:47;2.80;;;1.30;;
76729;SDS011;65653;53.106;18.046;2024-03-29T05:18:14;4.00;;;1.70;;
76729;SDS011;65653;53.106;18.046;2024-03-29T05:20:41;3.40;;;1.70;;
76729;SDS011;65653;53.106;18.046;2024-03-29T05:23:13;1.90;;;1.20;;
76729;SDS011;65653;53.106;18.046;2024-03-29T05:25:40;2.50;;;1.20;;
76729;SDS011;65653;53.106;18.046;2024-03-29T05:28:08;2.50;;;0.80;;
76729;SDS011;65653;53.106;18.046;2024-03-29T05:30:35;4.00;;;1.40;;
76729;SDS011;65653;53.106;18.046;2024-03-29T05:33:04;1.40;;;1.00;;
76729;SDS011;65653;53.106;18.046;2024-03-29T05:37:59;2.20;;;1.10;;
76729;SDS011;65653;53.106;18.046;2024-03-29T05:40:26;1.40;;;1.00;;
76729;SDS011;65653;53.106;18.046;2024-03-29T05:42:53;3.00;;;1.00;;
76729;SDS011;65653;53.106;18.046;2024-03-29T05:45:27;2.60;;;1.30;;
76729;SDS011;65653;53.106;18.046;2024-03-29T05:47:56;0.80;;;0.70;;
76729;SDS011;65653;53.106;18.046;2024-03-29T05:50:24;2.60;;;0.90;;
76729;SDS011;65653;53.106;18.046;2024-03-29T05:52:51;2.20;;;1.10;;
76729;SDS011;65653;53.106;18.046;2024-03-29T05:55:18;1.30;;;0.70;;
76729;SDS011;65653;53.106;18.046;2024-03-29T05:57:45;3.80;;;0.80;;
76729;SDS011;65653;53.106;18.046;2024-03-29T06:00:12;0.90;;;0.50;;
76729;SDS011;65653;53.106;18.046;2024-03-29T06:02:42;1.40;;;0.90;;
76729;SDS011;65653;53.106;18.046;2024-03-29T06:05:14;2.20;;;0.80;;
76729;SDS011;65653;53.106;18.046;2024-03-29T06:07:40;2.10;;;0.70;;
76729;SDS011;65653;53.106;18.046;2024-03-29T06:10:07;1.70;;;0.60;;
76729;SDS011;65653;53.106;18.046;2024-03-29T06:12:35;1.90;;;0.70;;
76729;SDS011;65653;53.106;18.046;2024-03-29T06:15:07;1.40;;;0.90;;
76729;SDS011;65653;53.106;18.046;2024-03-29T06:17:52;1.20;;;0.80;;
76729;SDS011;65653;53.106;18.046;2024-03-29T06:20:18;1.50;;;0.80;;
76729;SDS011;65653;53.106;18.046;2024-03-29T06:22:45;1.00;;;0.80;;
76729;SDS011;65653;53.106;18.046;2024-03-29T06:25:11;2.30;;;0.90;;
76729;SDS011;65653;53.106;18.046;2024-03-29T06:27:38;4.50;;;1.50;;
76729;SDS011;65653;53.106;18.046;2024-03-29T06:30:05;1.80;;;0.70;;
76729;SDS011;65653;53.106;18.046;2024-03-29T06:32:34;1.30;;;0.80;;
76729;SDS011;65653;53.106;18.046;2024-03-29T06:35:01;0.90;;;0.60;;
76729;SDS011;65653;53.106;18.046;2024-03-29T06:37:27;1.50;;;1.00;;
76729;SDS011;65653;53.106;18.046;2024-03-29T06:39:54;1.40;;;0.70;;
76729;SDS011;65653;53.106;18.046;2024-03-29T06:42:21;2.00;;;0.70;;
76729;SDS011;65653;53.106;18.046;2024-03-29T06:44:48;1.20;;;0.80;;
76729;SDS011;65653;53.106;18.046;2024-03-29T06:47:14;2.10;;;0.90;;
76729;SDS011;65653;53.106;18.046;2024-03-29T06:49:41;0.60;;;0.60;;
76729;SDS011;65653;53.106;18.046;2024-03-29T06:52:07;1.80;;;0.80;;
76729;SDS011;65653;53.106;18.046;2024-03-29T06:54:34;2.40;;;0.90;;
76729;SDS011;65653;53.106;18.046;2024-03-29T06:57:01;0.70;;;0.50;;
76729;SDS011;65653;53.106;18.046;2024-03-29T06:59:29;1.60;;;0.70;;
76729;SDS011;65653;53.106;18.046;2024-03-29T07:01:55;2.10;;;1.10;;
76729;SDS011;65653;53.106;18.046;2024-03-29T07:04:22;1.00;;;0.70;;
76729;SDS011;65653;53.106;18.046;2024-03-29T07:06:50;2.00;;;1.10;;
76729;SDS011;65653;53.106;18.046;2024-03-29T07:09:20;2.90;;;1.20;;
76729;SDS011;65653;53.106;18.046;2024-03-29T07:11:49;2.00;;;1.00;;
76729;SDS011;65653;53.106;18.046;2024-03-29T07:14:17;0.70;;;0.50;;
76729;SDS011;65653;53.106;18.046;2024-03-29T07:16:45;2.40;;;0.70;;
76729;SDS011;65653;53.106;18.046;2024-03-29T07:19:12;1.50;;;1.10;;
76729;SDS011;65653;53.106;18.046;2024-03-29T07:21:40;1.70;;;1.10;;
76729;SDS011;65653;53.106;18.046;2024-03-29T07:24:06;1.10;;;0.90;;
76729;SDS011;65653;53.106;18.046;2024-03-29T07:26:33;3.70;;;0.80;;
76729;SDS011;65653;53.106;18.046;2024-03-29T07:28:59;1.40;;;0.80;;
76729;SDS011;65653;53.106;18.046;2024-03-29T07:31:27;5.80;;;3.00;;
76729;SDS011;65653;53.106;18.046;2024-03-29T07:33:53;1.90;;;0.80;;
76729;SDS011;65653;53.106;18.046;2024-03-29T07:36:19;1.00;;;0.60;;
76729;SDS011;65653;53.106;18.046;2024-03-29T07:38:49;2.80;;;0.90;;
76729;SDS011;65653;53.106;18.046;2024-03-29T07:41:16;2.30;;;1.00;;
76729;SDS011;65653;53.106;18.046;2024-03-29T07:43:55;2.30;;;0.80;;
76729;SDS011;65653;53.106;18.046;2024-03-29T07:46:29;2.70;;;1.00;;
76729;SDS011;65653;53.106;18.046;2024-03-29T07:48:58;1.20;;;0.70;;
76729;SDS011;65653;53.106;18.046;2024-03-29T07:51:24;1.20;;;0.80;;
76729;SDS011;65653;53.106;18.046;2024-03-29T07:53:51;1.90;;;0.60;;
76729;SDS011;65653;53.106;18.046;2024-03-29T07:56:18;2.00;;;0.90;;
76729;SDS011;65653;53.106;18.046;2024-03-29T07:58:44;1.30;;;0.80;;
76729;SDS011;65653;53.106;18.046;2024-03-29T08:01:17;1.70;;;1.00;;
76729;SDS011;65653;53.106;18.046;2024-03-29T08:03:47;1.70;;;0.70;;
76729;SDS011;65653;53.106;18.046;2024-03-29T08:06:16;2.10;;;0.80;;
76729;SDS011;65653;53.106;18.046;2024-03-29T08:08:44;2.30;;;0.90;;
76729;SDS011;65653;53.106;18.046;2024-03-29T08:11:12;1.00;;;0.80;;
76729;SDS011;65653;53.106;18.046;2024-03-29T08:13:38;1.70;;;0.90;;
76729;SDS011;65653;53.106;18.046;2024-03-29T08:16:06;2.60;;;0.70;;
76729;SDS011;65653;53.106;18.046;2024-03-29T08:18:33;1.40;;;0.70;;
76729;SDS011;65653;53.106;18.046;2024-03-29T08:21:00;2.40;;;0.90;;
76729;SDS011;65653;53.106;18.046;2024-03-29T08:23:27;2.20;;;0.80;;
76729;SDS011;65653;53.106;18.046;2024-03-29T08:25:53;1.50;;;0.80;;
76729;SDS011;65653;53.106;18.046;2024-03-29T08:28:22;1.00;;;0.60;;
76729;SDS011;65653;53.106;18.046;2024-03-29T08:31:03;3.10;;;0.70;;
76729;SDS011;65653;53.106;18.046;2024-03-29T08:33:37;1.50;;;0.60;;
76729;SDS011;65653;53.106;18.046;2024-03-29T08:36:08;0.70;;;0.70;;
76729;SDS011;65653;53.106;18.046;2024-03-29T08:39:27;2.10;;;1.20;;
76729;SDS011;65653;53.106;18.046;2024-03-29T08:41:55;2.10;;;0.80;;
76729;SDS011;65653;53.106;18.046;2024-03-29T08:44:22;3.60;;;1.00;;
76729;SDS011;65653;53.106;18.046;2024-03-29T08:46:55;1.60;;;1.00;;
76729;SDS011;65653;53.106;18.046;2024-03-29T08:49:23;2.10;;;0.90;;
76729;SDS011;65653;53.106;18.046;2024-03-29T08:51:52;2.30;;;0.90;;
76729;SDS011;65653;53.106;18.046;2024-03-29T08:54:19;1.50;;;0.80;;
76729;SDS011;65653;53.106;18.046;2024-03-29T08:56:45;4.50;;;1.10;;
76729;SDS011;65653;53.106;18.046;2024-03-29T08:59:13;3.10;;;1.10;;
76729;SDS011;65653;53.106;18.046;2024-03-29T09:01:46;2.90;;;0.90;;
76729;SDS011;65653;53.106;18.046;2024-03-29T09:04:15;1.60;;;1.00;;
76729;SDS011;65653;53.106;18.046;2024-03-29T09:06:42;3.10;;;1.30;;
76729;SDS011;65653;53.106;18.046;2024-03-29T09:09:09;2.00;;;1.00;;
76729;SDS011;65653;53.106;18.046;2024-03-29T09:11:38;2.80;;;1.30;;
76729;SDS011;65653;53.106;18.046;2024-03-29T09:14:05;2.50;;;1.10;;
76729;SDS011;65653;53.106;18.046;2024-03-29T09:16:45;2.50;;;1.20;;
76729;SDS011;65653;53.106;18.046;2024-03-29T09:19:15;1.90;;;1.00;;
76729;SDS011;65653;53.106;18.046;2024-03-29T09:21:56;1.70;;;1.20;;
76729;SDS011;65653;53.106;18.046;2024-03-29T09:24:40;2.80;;;1.20;;
76729;SDS011;65653;53.106;18.046;2024-03-29T09:27:06;1.90;;;1.00;;
76729;SDS011;65653;53.106;18.046;2024-03-29T09:29:33;3.50;;;1.00;;
76729;SDS011;65653;53.106;18.046;2024-03-29T09:32:02;1.80;;;0.90;;
76729;SDS011;65653;53.106;18.046;2024-03-29T09:34:28;1.80;;;0.90;;
76729;SDS011;65653;53.106;18.046;2024-03-29T09:36:57;2.70;;;1.20;;
76729;SDS011;65653;53.106;18.046;2024-03-29T09:39:25;2.40;;;1.30;;
76729;SDS011;65653;53.106;18.046;2024-03-29T09:41:52;3.20;;;1.20;;
76729;SDS011;65653;53.106;18.046;2024-03-29T09:44:25;2.20;;;1.00;;
76729;SDS011;65653;53.106;18.046;2024-03-29T09:47:02;1.50;;;1.00;;
76729;SDS011;65653;53.106;18.046;2024-03-29T09:49:33;2.90;;;0.90;;
76729;SDS011;65653;53.106;18.046;2024-03-29T09:52:01;2.40;;;1.50;;
76729;SDS011;65653;53.106;18.046;2024-03-29T09:54:28;3.90;;;1.60;;
76729;SDS011;65653;53.106;18.046;2024-03-29T09:56:56;3.30;;;1.20;;
76729;SDS011;65653;53.106;18.046;2024-03-29T09:59:24;2.80;;;0.90;;
76729;SDS011;65653;53.106;18.046;2024-03-29T10:04:24;2.90;;;0.80;;
76729;SDS011;65653;53.106;18.046;2024-03-29T10:06:51;2.80;;;0.80;;
76729;SDS011;65653;53.106;18.046;2024-03-29T10:09:18;2.00;;;0.90;;
76729;SDS011;65653;53.106;18.046;2024-03-29T10:11:45;1.60;;;0.80;;
76729;SDS011;65653;53.106;18.046;2024-03-29T10:14:13;1.60;;;0.70;;
76729;SDS011;65653;53.106;18.046;2024-03-29T10:16:39;3.10;;;1.00;;
76729;SDS011;65653;53.106;18.046;2024-03-29T10:19:14;3.90;;;0.90;;
76729;SDS011;65653;53.106;18.046;2024-03-29T10:21:41;3.50;;;1.20;;
76729;SDS011;65653;53.106;18.046;2024-03-29T10:24:17;3.60;;;0.90;;
76729;SDS011;65653;53.106;18.046;2024-03-29T10:26:46;2.10;;;1.10;;
76729;SDS011;65653;53.106;18.046;2024-03-29T10:29:19;1.50;;;0.90;;
76729;SDS011;65653;53.106;18.046;2024-03-29T10:31:46;1.80;;;0.90;;
76729;SDS011;65653;53.106;18.046;2024-03-29T10:34:19;2.20;;;0.90;;
76729;SDS011;65653;53.106;18.046;2024-03-29T10:36:46;4.10;;;1.00;;
76729;SDS011;65653;53.106;18.046;2024-03-29T10:39:16;2.10;;;0.90;;
76729;SDS011;65653;53.106;18.046;2024-03-29T10:41:46;1.40;;;0.90;;
76729;SDS011;65653;53.106;18.046;2024-03-29T10:44:13;4.00;;;1.10;;
76729;SDS011;65653;53.106;18.046;2024-03-29T10:46:54;1.30;;;0.60;;
76729;SDS011;65653;53.106;18.046;2024-03-29T10:49:32;2.40;;;0.80;;
76729;SDS011;65653;53.106;18.046;2024-03-29T10:52:01;3.60;;;1.00;;
76729;SDS011;65653;53.106;18.046;2024-03-29T10:54:33;2.70;;;0.80;;
76729;SDS011;65653;53.106;18.046;2024-03-29T10:57:16;1.60;;;0.80;;
76729;SDS011;65653;53.106;18.046;2024-03-29T10:59:49;1.50;;;0.70;;
76729;SDS011;65653;53.106;18.046;2024-03-29T11:02:53;2.70;;;0.90;;
76729;SDS011;65653;53.106;18.046;2024-03-29T11:05:35;2.00;;;0.90;;
76729;SDS011;65653;53.106;18.046;2024-03-29T11:08:07;3.30;;;0.90;;
76729;SDS011;65653;53.106;18.046;2024-03-29T11:10:44;1.80;;;0.70;;
76729;SDS011;65653;53.106;18.046;2024-03-29T11:16:01;5.30;;;0.70;;
76729;SDS011;65653;53.106;18.046;2024-03-29T11:18:29;3.40;;;0.80;;
76729;SDS011;65653;53.106;18.046;2024-03-29T11:20:59;0.80;;;0.60;;
76729;SDS011;65653;53.106;18.046;2024-03-29T11:23:35;4.10;;;0.80;;
76729;SDS011;65653;53.106;18.046;2024-03-29T11:26:18;3.60;;;0.90;;
76729;SDS011;65653;53.106;18.046;2024-03-29T11:28:49;1.30;;;0.70;;
76729;SDS011;65653;53.106;18.046;2024-03-29T11:31:45;2.60;;;0.70;;
76729;SDS011;65653;53.106;18.046;2024-03-29T11:34:13;3.80;;;0.80;;
76729;SDS011;65653;53.106;18.046;2024-03-29T11:36:40;3.00;;;0.80;;
76729;SDS011;65653;53.106;18.046;2024-03-29T11:39:08;1.20;;;0.50;;
76729;SDS011;65653;53.106;18.046;2024-03-29T11:42:07;3.70;;;0.80;;
76729;SDS011;65653;53.106;18.046;2024-03-29T11:44:36;1.90;;;0.70;;
76729;SDS011;65653;53.106;18.046;2024-03-29T11:47:03;2.70;;;1.00;;
76729;SDS011;65653;53.106;18.046;2024-03-29T11:49:55;1.50;;;0.70;;
76729;SDS011;65653;53.106;18.046;2024-03-29T11:52:22;2.80;;;0.70;;
76729;SDS011;65653;53.106;18.046;2024-03-29T11:54:48;2.10;;;0.60;;
76729;SDS011;65653;53.106;18.046;2024-03-29T11:57:33;2.60;;;0.80;;
76729;SDS011;65653;53.106;18.046;2024-03-29T12:03:03;1.70;;;1.00;;
76729;SDS011;65653;53.106;18.046;2024-03-29T12:05:55;1.10;;;0.60;;
76729;SDS011;65653;53.106;18.046;2024-03-29T12:08:28;1.00;;;0.50;;
76729;SDS011;65653;53.106;18.046;2024-03-29T12:11:33;1.40;;;0.70;;
76729;SDS011;65653;53.106;18.046;2024-03-29T12:13:59;1.70;;;0.70;;
76729;SDS011;65653;53.106;18.046;2024-03-29T12:16:30;2.00;;;0.80;;
76729;SDS011;65653;53.106;18.046;2024-03-29T12:18:56;2.10;;;0.90;;
76729;SDS011;65653;53.106;18.046;2024-03-29T12:21:23;1.60;;;0.80;;
76729;SDS011;65653;53.106;18.046;2024-03-29T12:23:55;5.00;;;1.10;;
76729;SDS011;65653;53.106;18.046;2024-03-29T12:26:27;2.70;;;0.90;;
76729;SDS011;65653;53.106;18.046;2024-03-29T12:28:57;1.50;;;0.70;;
76729;SDS011;65653;53.106;18.046;2024-03-29T12:31:28;2.00;;;0.70;;
76729;SDS011;65653;53.106;18.046;2024-03-29T12:33:56;2.30;;;0.70;;
76729;SDS011;65653;53.106;18.046;2024-03-29T12:36:24;2.40;;;0.60;;
76729;SDS011;65653;53.106;18.046;2024-03-29T12:39:12;2.40;;;0.60;;
76729;SDS011;65653;53.106;18.046;2024-03-29T12:41:41;4.30;;;0.70;;
76729;SDS011;65653;53.106;18.046;2024-03-29T12:44:13;1.40;;;0.60;;
76729;SDS011;65653;53.106;18.046;2024-03-29T12:49:41;1.70;;;0.60;;
76729;SDS011;65653;53.106;18.046;2024-03-29T12:52:09;1.20;;;0.70;;
76729;SDS011;65653;53.106;18.046;2024-03-29T12:54:36;2.00;;;0.60;;
76729;SDS011;65653;53.106;18.046;2024-03-29T12:57:05;1.40;;;0.60;;
76729;SDS011;65653;53.106;18.046;2024-03-29T12:59:53;1.90;;;0.80;;
76729;SDS011;65653;53.106;18.046;2024-03-29T13:02:21;2.30;;;0.80;;
76729;SDS011;65653;53.106;18.046;2024-03-29T13:04:51;2.90;;;0.60;;
76729;SDS011;65653;53.106;18.046;2024-03-29T13:07:21;1.80;;;0.60;;
76729;SDS011;65653;53.106;18.046;2024-03-29T13:12:16;1.00;;;0.40;;
76729;SDS011;65653;53.106;18.046;2024-03-29T13:14:43;3.50;;;0.80;;
76729;SDS011;65653;53.106;18.046;2024-03-29T13:17:09;4.00;;;0.70;;
76729;SDS011;65653;53.106;18.046;2024-03-29T13:19:36;1.20;;;0.50;;
76729;SDS011;65653;53.106;18.046;2024-03-29T13:22:03;2.80;;;0.70;;
76729;SDS011;65653;53.106;18.046;2024-03-29T13:24:29;2.80;;;0.50;;
76729;SDS011;65653;53.106;18.046;2024-03-29T13:26:56;1.90;;;0.60;;
76729;SDS011;65653;53.106;18.046;2024-03-29T13:29:23;1.50;;;0.70;;
76729;SDS011;65653;53.106;18.046;2024-03-29T13:31:49;0.80;;;0.40;;
76729;SDS011;65653;53.106;18.046;2024-03-29T13:34:16;2.80;;;0.50;;
76729;SDS011;65653;53.106;18.046;2024-03-29T13:36:44;2.20;;;0.50;;
76729;SDS011;65653;53.106;18.046;2024-03-29T13:39:15;1.20;;;0.50;;
76729;SDS011;65653;53.106;18.046;2024-03-29T13:41:51;1.30;;;0.60;;
76729;SDS011;65653;53.106;18.046;2024-03-29T13:44:19;1.10;;;0.70;;
76729;SDS011;65653;53.106;18.046;2024-03-29T13:46:46;1.90;;;0.60;;
76729;SDS011;65653;53.106;18.046;2024-03-29T13:49:14;1.20;;;0.60;;
76729;SDS011;65653;53.106;18.046;2024-03-29T13:51:43;3.10;;;0.70;;
76729;SDS011;65653;53.106;18.046;2024-03-29T13:54:09;1.70;;;0.70;;
76729;SDS011;65653;53.106;18.046;2024-03-29T13:56:38;2.00;;;0.90;;
76729;SDS011;65653;53.106;18.046;2024-03-29T13:59:04;2.70;;;0.50;;
76729;SDS011;65653;53.106;18.046;2024-03-29T14:01:32;1.20;;;0.40;;
76729;SDS011;65653;53.106;18.046;2024-03-29T14:04:00;1.40;;;0.80;;
76729;SDS011;65653;53.106;18.046;2024-03-29T14:06:29;1.70;;;0.60;;
76729;SDS011;65653;53.106;18.046;2024-03-29T14:08:55;0.90;;;0.40;;
76729;SDS011;65653;53.106;18.046;2024-03-29T14:11:25;1.60;;;0.40;;
76729;SDS011;65653;53.106;18.046;2024-03-29T14:13:53;4.00;;;0.80;;
76729;SDS011;65653;53.106;18.046;2024-03-29T14:16:22;1.80;;;0.60;;
76729;SDS011;65653;53.106;18.046;2024-03-29T14:18:48;1.40;;;0.60;;
76729;SDS011;65653;53.106;18.046;2024-03-29T14:21:15;1.00;;;0.50;;
76729;SDS011;65653;53.106;18.046;2024-03-29T14:23:43;3.10;;;0.50;;
76729;SDS011;65653;53.106;18.046;2024-03-29T14:29:25;1.60;;;0.70;;
76729;SDS011;65653;53.106;18.046;2024-03-29T14:31:51;2.70;;;0.40;;
76729;SDS011;65653;53.106;18.046;2024-03-29T14:34:40;1.60;;;0.40;;
76729;SDS011;65653;53.106;18.046;2024-03-29T14:37:29;1.10;;;0.40;;
76729;SDS011;65653;53.106;18.046;2024-03-29T14:40:00;0.80;;;0.40;;
76729;SDS011;65653;53.106;18.046;2024-03-29T14:45:40;1.40;;;0.60;;
76729;SDS011;65653;53.106;18.046;2024-03-29T14:54:32;3.00;;;0.60;;
76729;SDS011;65653;53.106;18.046;2024-03-29T14:56:58;1.00;;;0.40;;
76729;SDS011;65653;53.106;18.046;2024-03-29T14:59:29;2.20;;;0.60;;
76729;SDS011;65653;53.106;18.046;2024-03-29T15:01:58;1.40;;;0.60;;
76729;SDS011;65653;53.106;18.046;2024-03-29T15:04:49;1.40;;;0.70;;
76729;SDS011;65653;53.106;18.046;2024-03-29T15:07:16;0.60;;;0.50;;
76729;SDS011;65653;53.106;18.046;2024-03-29T15:10:02;3.10;;;0.60;;
76729;SDS011;65653;53.106;18.046;2024-03-29T15:15:18;1.60;;;0.50;;
76729;SDS011;65653;53.106;18.046;2024-03-29T15:17:47;1.10;;;0.30;;
76729;SDS011;65653;53.106;18.046;2024-03-29T15:20:27;1.80;;;0.40;;